sensor_id;sensor_type;location;lat;lon;timestamp;P1;durP1;ratioP1;P2;durP2;ratioP2
46110;SDS011;31849;55.992;37.252;2022-09-12T00:03:21;10.10;;;6.32;;
46110;SDS011;31849;55.992;37.252;2022-09-12T00:13:29;7.97;;;5.25;;
46110;SDS011;31849;55.992;37.252;2022-09-12T00:18:33;10.75;;;5.65;;
46110;SDS011;31849;55.992;37.252;2022-09-12T00:23:38;11.10;;;6.20;;
46110;SDS011;31849;55.992;37.252;2022-09-12T00:28:41;9.68;;;5.43;;
46110;SDS011;31849;55.992;37.252;2022-09-12T00:33:47;11.30;;;6.60;;
46110;SDS011;31849;55.992;37.252;2022-09-12T00:38:50;9.25;;;5.53;;
46110;SDS011;31849;55.992;37.252;2022-09-12T00:43:56;10.85;;;6.07;;
46110;SDS011;31849;55.992;37.252;2022-09-12T00:54:09;11.40;;;6.35;;
46110;SDS011;31849;55.992;37.252;2022-09-12T00:59:17;9.63;;;5.85;;
46110;SDS011;31849;55.992;37.252;2022-09-12T01:04:26;8.48;;;5.38;;
46110;SDS011;31849;55.992;37.252;2022-09-12T01:09:30;10.38;;;6.63;;
46110;SDS011;31849;55.992;37.252;2022-09-12T01:14:35;12.48;;;6.57;;
46110;SDS011;31849;55.992;37.252;2022-09-12T01:24:59;13.48;;;6.90;;
46110;SDS011;31849;55.992;37.252;2022-09-12T01:30:24;11.63;;;7.47;;
46110;SDS011;31849;55.992;37.252;2022-09-12T01:35:49;19.35;;;16.85;;
46110;SDS011;31849;55.992;37.252;2022-09-12T01:41:06;12.20;;;9.98;;
46110;SDS011;31849;55.992;37.252;2022-09-12T01:46:22;14.77;;;9.65;;
46110;SDS011;31849;55.992;37.252;2022-09-12T01:51:34;14.15;;;9.80;;
46110;SDS011;31849;55.992;37.252;2022-09-12T01:56:40;11.48;;;9.52;;
46110;SDS011;31849;55.992;37.252;2022-09-12T02:01:50;10.45;;;7.30;;
46110;SDS011;31849;55.992;37.252;2022-09-12T02:07:01;11.65;;;7.97;;
46110;SDS011;31849;55.992;37.252;2022-09-12T02:12:09;10.05;;;6.82;;
46110;SDS011;31849;55.992;37.252;2022-09-12T02:17:19;10.25;;;7.18;;
46110;SDS011;31849;55.992;37.252;2022-09-12T02:22:26;9.73;;;7.18;;
46110;SDS011;31849;55.992;37.252;2022-09-12T02:27:31;10.05;;;7.80;;
46110;SDS011;31849;55.992;37.252;2022-09-12T02:32:42;12.88;;;8.75;;
46110;SDS011;31849;55.992;37.252;2022-09-12T02:37:54;11.38;;;7.70;;
46110;SDS011;31849;55.992;37.252;2022-09-12T02:43:04;11.50;;;7.88;;
46110;SDS011;31849;55.992;37.252;2022-09-12T02:48:11;11.93;;;7.22;;
46110;SDS011;31849;55.992;37.252;2022-09-12T02:53:20;13.13;;;7.18;;
46110;SDS011;31849;55.992;37.252;2022-09-12T03:03:39;11.82;;;7.63;;
46110;SDS011;31849;55.992;37.252;2022-09-12T03:09:05;12.38;;;8.88;;
46110;SDS011;31849;55.992;37.252;2022-09-12T03:14:18;12.45;;;8.85;;
46110;SDS011;31849;55.992;37.252;2022-09-12T03:19:32;13.13;;;8.80;;
46110;SDS011;31849;55.992;37.252;2022-09-12T03:24:46;14.18;;;9.07;;
46110;SDS011;31849;55.992;37.252;2022-09-12T03:29:54;15.02;;;8.85;;
46110;SDS011;31849;55.992;37.252;2022-09-12T03:35:01;14.27;;;8.88;;
46110;SDS011;31849;55.992;37.252;2022-09-12T03:40:06;14.50;;;9.50;;
46110;SDS011;31849;55.992;37.252;2022-09-12T03:45:13;15.80;;;10.07;;
46110;SDS011;31849;55.992;37.252;2022-09-12T03:50:18;13.57;;;9.60;;
46110;SDS011;31849;55.992;37.252;2022-09-12T03:55:23;14.77;;;10.68;;
46110;SDS011;31849;55.992;37.252;2022-09-12T04:05:34;17.00;;;11.75;;
46110;SDS011;31849;55.992;37.252;2022-09-12T04:10:39;19.55;;;12.38;;
46110;SDS011;31849;55.992;37.252;2022-09-12T04:15:54;19.25;;;11.93;;
46110;SDS011;31849;55.992;37.252;2022-09-12T04:21:03;19.35;;;12.20;;
46110;SDS011;31849;55.992;37.252;2022-09-12T04:26:08;24.70;;;13.15;;
46110;SDS011;31849;55.992;37.252;2022-09-12T04:31:16;19.08;;;14.02;;
46110;SDS011;31849;55.992;37.252;2022-09-12T04:36:23;22.95;;;14.25;;
46110;SDS011;31849;55.992;37.252;2022-09-12T04:41:29;21.83;;;13.68;;
46110;SDS011;31849;55.992;37.252;2022-09-12T04:46:39;20.70;;;13.88;;
46110;SDS011;31849;55.992;37.252;2022-09-12T04:51:47;24.33;;;14.90;;
46110;SDS011;31849;55.992;37.252;2022-09-12T04:56:51;21.63;;;14.77;;
46110;SDS011;31849;55.992;37.252;2022-09-12T05:07:01;22.77;;;14.70;;
46110;SDS011;31849;55.992;37.252;2022-09-12T05:12:06;18.10;;;12.40;;
46110;SDS011;31849;55.992;37.252;2022-09-12T05:17:10;19.17;;;12.90;;
46110;SDS011;31849;55.992;37.252;2022-09-12T05:22:16;25.50;;;14.15;;
46110;SDS011;31849;55.992;37.252;2022-09-12T05:32:23;20.73;;;14.02;;
46110;SDS011;31849;55.992;37.252;2022-09-12T05:37:28;19.98;;;13.73;;
46110;SDS011;31849;55.992;37.252;2022-09-12T05:42:32;19.98;;;13.95;;
46110;SDS011;31849;55.992;37.252;2022-09-12T05:47:36;20.80;;;14.02;;
46110;SDS011;31849;55.992;37.252;2022-09-12T05:52:42;22.42;;;15.27;;
46110;SDS011;31849;55.992;37.252;2022-09-12T06:08:36;20.08;;;15.27;;
46110;SDS011;31849;55.992;37.252;2022-09-12T06:13:40;19.88;;;15.23;;
46110;SDS011;31849;55.992;37.252;2022-09-12T06:18:45;19.50;;;14.38;;
46110;SDS011;31849;55.992;37.252;2022-09-12T06:23:51;20.70;;;15.27;;
46110;SDS011;31849;55.992;37.252;2022-09-12T06:28:56;18.17;;;14.20;;
46110;SDS011;31849;55.992;37.252;2022-09-12T06:34:03;18.33;;;13.02;;
46110;SDS011;31849;55.992;37.252;2022-09-12T06:39:10;17.10;;;13.25;;
46110;SDS011;31849;55.992;37.252;2022-09-12T06:44:15;19.02;;;12.75;;
46110;SDS011;31849;55.992;37.252;2022-09-12T06:49:20;16.23;;;12.00;;
46110;SDS011;31849;55.992;37.252;2022-09-12T06:54:24;13.70;;;10.48;;
46110;SDS011;31849;55.992;37.252;2022-09-12T07:04:31;14.05;;;10.25;;
46110;SDS011;31849;55.992;37.252;2022-09-12T07:09:38;15.82;;;9.13;;
46110;SDS011;31849;55.992;37.252;2022-09-12T07:14:42;14.68;;;9.45;;
46110;SDS011;31849;55.992;37.252;2022-09-12T07:19:46;14.57;;;10.13;;
46110;SDS011;31849;55.992;37.252;2022-09-12T07:24:57;12.55;;;9.90;;
46110;SDS011;31849;55.992;37.252;2022-09-12T07:30:00;16.67;;;10.60;;
46110;SDS011;31849;55.992;37.252;2022-09-12T07:35:05;12.98;;;9.80;;
46110;SDS011;31849;55.992;37.252;2022-09-12T07:40:11;10.75;;;8.48;;
46110;SDS011;31849;55.992;37.252;2022-09-12T07:45:16;11.05;;;7.68;;
46110;SDS011;31849;55.992;37.252;2022-09-12T07:50:19;11.73;;;7.70;;
46110;SDS011;31849;55.992;37.252;2022-09-12T08:05:37;9.27;;;6.95;;
46110;SDS011;31849;55.992;37.252;2022-09-12T08:10:42;8.65;;;7.10;;
46110;SDS011;31849;55.992;37.252;2022-09-12T08:15:46;11.05;;;6.10;;
46110;SDS011;31849;55.992;37.252;2022-09-12T08:20:54;8.25;;;6.10;;
46110;SDS011;31849;55.992;37.252;2022-09-12T08:26:02;7.97;;;5.78;;
46110;SDS011;31849;55.992;37.252;2022-09-12T08:31:07;10.75;;;6.05;;
46110;SDS011;31849;55.992;37.252;2022-09-12T08:36:15;8.30;;;5.70;;
46110;SDS011;31849;55.992;37.252;2022-09-12T08:41:24;5.97;;;4.63;;
46110;SDS011;31849;55.992;37.252;2022-09-12T08:46:32;6.10;;;4.78;;
46110;SDS011;31849;55.992;37.252;2022-09-12T08:51:42;8.25;;;5.70;;
46110;SDS011;31849;55.992;37.252;2022-09-12T08:56:48;8.23;;;5.82;;
46110;SDS011;31849;55.992;37.252;2022-09-12T09:01:52;10.25;;;6.32;;
46110;SDS011;31849;55.992;37.252;2022-09-12T09:07:10;10.63;;;7.57;;
46110;SDS011;31849;55.992;37.252;2022-09-12T09:12:23;13.05;;;7.90;;
46110;SDS011;31849;55.992;37.252;2022-09-12T09:17:34;14.00;;;8.25;;
46110;SDS011;31849;55.992;37.252;2022-09-12T09:22:43;16.33;;;10.07;;
46110;SDS011;31849;55.992;37.252;2022-09-12T09:27:55;15.30;;;9.48;;
46110;SDS011;31849;55.992;37.252;2022-09-12T09:33:04;18.33;;;9.98;;
46110;SDS011;31849;55.992;37.252;2022-09-12T09:38:17;16.77;;;10.30;;
46110;SDS011;31849;55.992;37.252;2022-09-12T09:43:28;16.23;;;10.70;;
46110;SDS011;31849;55.992;37.252;2022-09-12T09:48:33;17.85;;;11.23;;
46110;SDS011;31849;55.992;37.252;2022-09-12T09:53:40;17.70;;;11.93;;
46110;SDS011;31849;55.992;37.252;2022-09-12T09:58:48;18.25;;;11.82;;
46110;SDS011;31849;55.992;37.252;2022-09-12T10:03:53;16.92;;;11.77;;
46110;SDS011;31849;55.992;37.252;2022-09-12T10:09:17;20.10;;;12.50;;
46110;SDS011;31849;55.992;37.252;2022-09-12T10:14:29;18.38;;;12.70;;
46110;SDS011;31849;55.992;37.252;2022-09-12T10:19:38;21.95;;;12.38;;
46110;SDS011;31849;55.992;37.252;2022-09-12T10:24:45;17.63;;;12.77;;
46110;SDS011;31849;55.992;37.252;2022-09-12T10:29:58;17.38;;;12.50;;
46110;SDS011;31849;55.992;37.252;2022-09-12T10:35:05;18.85;;;11.25;;
46110;SDS011;31849;55.992;37.252;2022-09-12T10:40:22;18.35;;;11.43;;
46110;SDS011;31849;55.992;37.252;2022-09-12T10:45:29;14.60;;;10.20;;
46110;SDS011;31849;55.992;37.252;2022-09-12T10:50:35;16.10;;;10.18;;
46110;SDS011;31849;55.992;37.252;2022-09-12T10:55:47;15.77;;;9.15;;
46110;SDS011;31849;55.992;37.252;2022-09-12T11:01:07;18.63;;;9.93;;
46110;SDS011;31849;55.992;37.252;2022-09-12T11:06:20;13.37;;;8.80;;
46110;SDS011;31849;55.992;37.252;2022-09-12T11:11:37;15.80;;;8.77;;
46110;SDS011;31849;55.992;37.252;2022-09-12T11:16:55;12.35;;;8.60;;
46110;SDS011;31849;55.992;37.252;2022-09-12T11:22:17;13.85;;;8.18;;
46110;SDS011;31849;55.992;37.252;2022-09-12T11:27:36;13.48;;;8.30;;
46110;SDS011;31849;55.992;37.252;2022-09-12T11:32:56;13.45;;;8.32;;
46110;SDS011;31849;55.992;37.252;2022-09-12T11:43:54;16.92;;;8.40;;
46110;SDS011;31849;55.992;37.252;2022-09-12T11:49:09;13.40;;;8.20;;
46110;SDS011;31849;55.992;37.252;2022-09-12T11:54:24;13.07;;;8.40;;
46110;SDS011;31849;55.992;37.252;2022-09-12T11:59:34;12.60;;;7.97;;
46110;SDS011;31849;55.992;37.252;2022-09-12T12:04:52;12.95;;;7.82;;
46110;SDS011;31849;55.992;37.252;2022-09-12T12:10:04;12.77;;;8.05;;
46110;SDS011;31849;55.992;37.252;2022-09-12T12:15:12;13.80;;;7.57;;
46110;SDS011;31849;55.992;37.252;2022-09-12T12:20:17;12.90;;;7.57;;
46110;SDS011;31849;55.992;37.252;2022-09-12T12:25:23;11.52;;;8.02;;
46110;SDS011;31849;55.992;37.252;2022-09-12T12:36:11;10.70;;;7.75;;
46110;SDS011;31849;55.992;37.252;2022-09-12T12:41:41;16.70;;;8.43;;
46110;SDS011;31849;55.992;37.252;2022-09-12T12:52:21;13.98;;;8.05;;
46110;SDS011;31849;55.992;37.252;2022-09-12T12:57:26;14.18;;;7.97;;
46110;SDS011;31849;55.992;37.252;2022-09-12T13:02:33;12.27;;;7.63;;
46110;SDS011;31849;55.992;37.252;2022-09-12T13:07:43;13.65;;;7.82;;
46110;SDS011;31849;55.992;37.252;2022-09-12T13:12:49;11.73;;;7.32;;
46110;SDS011;31849;55.992;37.252;2022-09-12T13:17:53;10.02;;;7.35;;
46110;SDS011;31849;55.992;37.252;2022-09-12T13:23:19;12.18;;;6.40;;
46110;SDS011;31849;55.992;37.252;2022-09-12T13:28:24;11.77;;;6.65;;
46110;SDS011;31849;55.992;37.252;2022-09-12T13:33:32;13.98;;;7.50;;
46110;SDS011;31849;55.992;37.252;2022-09-12T13:38:43;12.25;;;6.97;;
46110;SDS011;31849;55.992;37.252;2022-09-12T13:43:55;11.95;;;7.22;;
46110;SDS011;31849;55.992;37.252;2022-09-12T13:48:59;12.00;;;6.27;;
46110;SDS011;31849;55.992;37.252;2022-09-12T13:54:13;8.63;;;6.32;;
46110;SDS011;31849;55.992;37.252;2022-09-12T13:59:25;9.43;;;5.60;;
46110;SDS011;31849;55.992;37.252;2022-09-12T14:04:29;8.77;;;5.38;;
46110;SDS011;31849;55.992;37.252;2022-09-12T14:09:53;7.13;;;5.00;;
46110;SDS011;31849;55.992;37.252;2022-09-12T14:14:59;7.57;;;5.13;;
46110;SDS011;31849;55.992;37.252;2022-09-12T14:20:05;7.55;;;5.25;;
46110;SDS011;31849;55.992;37.252;2022-09-12T14:25:17;9.00;;;4.60;;
46110;SDS011;31849;55.992;37.252;2022-09-12T14:30:24;7.10;;;5.05;;
46110;SDS011;31849;55.992;37.252;2022-09-12T14:35:30;7.70;;;5.07;;
46110;SDS011;31849;55.992;37.252;2022-09-12T14:40:41;9.00;;;5.60;;
46110;SDS011;31849;55.992;37.252;2022-09-12T14:45:50;8.25;;;5.30;;
46110;SDS011;31849;55.992;37.252;2022-09-12T14:50:58;10.52;;;4.45;;
46110;SDS011;31849;55.992;37.252;2022-09-12T14:56:08;8.73;;;4.57;;
46110;SDS011;31849;55.992;37.252;2022-09-12T15:01:24;6.68;;;4.60;;
46110;SDS011;31849;55.992;37.252;2022-09-12T15:06:30;6.78;;;4.57;;
46110;SDS011;31849;55.992;37.252;2022-09-12T15:11:39;9.20;;;4.97;;
46110;SDS011;31849;55.992;37.252;2022-09-12T15:16:43;8.73;;;4.30;;
46110;SDS011;31849;55.992;37.252;2022-09-12T15:21:47;6.65;;;4.57;;
46110;SDS011;31849;55.992;37.252;2022-09-12T15:26:53;7.72;;;4.65;;
46110;SDS011;31849;55.992;37.252;2022-09-12T15:31:58;8.40;;;4.53;;
46110;SDS011;31849;55.992;37.252;2022-09-12T15:37:04;8.55;;;4.75;;
46110;SDS011;31849;55.992;37.252;2022-09-12T15:42:15;8.15;;;4.68;;
46110;SDS011;31849;55.992;37.252;2022-09-12T15:47:20;8.40;;;5.00;;
46110;SDS011;31849;55.992;37.252;2022-09-12T15:52:24;7.90;;;4.82;;
46110;SDS011;31849;55.992;37.252;2022-09-12T15:57:29;8.13;;;4.70;;
46110;SDS011;31849;55.992;37.252;2022-09-12T16:02:34;8.43;;;4.43;;
46110;SDS011;31849;55.992;37.252;2022-09-12T16:07:38;8.68;;;4.55;;
46110;SDS011;31849;55.992;37.252;2022-09-12T16:12:43;6.10;;;4.00;;
46110;SDS011;31849;55.992;37.252;2022-09-12T16:17:48;8.05;;;4.15;;
46110;SDS011;31849;55.992;37.252;2022-09-12T16:22:53;9.25;;;5.03;;
46110;SDS011;31849;55.992;37.252;2022-09-12T16:27:58;7.20;;;4.65;;
46110;SDS011;31849;55.992;37.252;2022-09-12T16:33:03;6.88;;;4.90;;
46110;SDS011;31849;55.992;37.252;2022-09-12T16:38:08;7.82;;;5.05;;
46110;SDS011;31849;55.992;37.252;2022-09-12T16:43:14;10.55;;;5.30;;
46110;SDS011;31849;55.992;37.252;2022-09-12T16:48:18;7.90;;;4.88;;
46110;SDS011;31849;55.992;37.252;2022-09-12T16:53:23;11.38;;;6.03;;
46110;SDS011;31849;55.992;37.252;2022-09-12T16:58:30;13.73;;;9.27;;
46110;SDS011;31849;55.992;37.252;2022-09-12T17:03:41;13.35;;;9.18;;
46110;SDS011;31849;55.992;37.252;2022-09-12T17:08:46;12.93;;;8.60;;
46110;SDS011;31849;55.992;37.252;2022-09-12T17:13:53;10.77;;;7.15;;
46110;SDS011;31849;55.992;37.252;2022-09-12T17:19:07;8.07;;;5.95;;
46110;SDS011;31849;55.992;37.252;2022-09-12T17:24:18;9.52;;;5.75;;
46110;SDS011;31849;55.992;37.252;2022-09-12T17:29:24;10.32;;;6.78;;
46110;SDS011;31849;55.992;37.252;2022-09-12T17:34:29;10.23;;;6.45;;
46110;SDS011;31849;55.992;37.252;2022-09-12T17:39:33;8.93;;;5.70;;
46110;SDS011;31849;55.992;37.252;2022-09-12T17:49:42;11.32;;;5.20;;
46110;SDS011;31849;55.992;37.252;2022-09-12T17:54:48;7.90;;;5.47;;
46110;SDS011;31849;55.992;37.252;2022-09-12T17:59:53;11.10;;;6.03;;
46110;SDS011;31849;55.992;37.252;2022-09-12T18:04:57;8.90;;;5.70;;
46110;SDS011;31849;55.992;37.252;2022-09-12T18:10:01;7.57;;;5.38;;
46110;SDS011;31849;55.992;37.252;2022-09-12T18:15:08;12.15;;;6.03;;
46110;SDS011;31849;55.992;37.252;2022-09-12T18:20:14;8.52;;;5.10;;
46110;SDS011;31849;55.992;37.252;2022-09-12T18:25:18;8.32;;;5.43;;
46110;SDS011;31849;55.992;37.252;2022-09-12T18:30:25;8.52;;;5.30;;
46110;SDS011;31849;55.992;37.252;2022-09-12T18:35:32;6.85;;;5.20;;
46110;SDS011;31849;55.992;37.252;2022-09-12T18:40:36;13.73;;;4.90;;
46110;SDS011;31849;55.992;37.252;2022-09-12T18:45:43;9.63;;;5.43;;
46110;SDS011;31849;55.992;37.252;2022-09-12T18:50:46;9.00;;;5.28;;
46110;SDS011;31849;55.992;37.252;2022-09-12T18:55:50;10.57;;;5.50;;
46110;SDS011;31849;55.992;37.252;2022-09-12T19:00:56;13.35;;;6.25;;
46110;SDS011;31849;55.992;37.252;2022-09-12T19:06:01;8.63;;;5.60;;
46110;SDS011;31849;55.992;37.252;2022-09-12T19:11:09;10.75;;;6.10;;
46110;SDS011;31849;55.992;37.252;2022-09-12T19:16:16;11.77;;;7.45;;
46110;SDS011;31849;55.992;37.252;2022-09-12T19:21:22;12.25;;;7.65;;
46110;SDS011;31849;55.992;37.252;2022-09-12T19:26:29;17.23;;;8.13;;
46110;SDS011;31849;55.992;37.252;2022-09-12T19:31:35;17.85;;;10.40;;
46110;SDS011;31849;55.992;37.252;2022-09-12T19:36:39;17.52;;;10.30;;
46110;SDS011;31849;55.992;37.252;2022-09-12T19:41:46;19.08;;;10.27;;
46110;SDS011;31849;55.992;37.252;2022-09-12T19:46:53;19.80;;;9.18;;
46110;SDS011;31849;55.992;37.252;2022-09-12T19:51:56;13.48;;;8.00;;
46110;SDS011;31849;55.992;37.252;2022-09-12T19:57:00;11.85;;;7.28;;
46110;SDS011;31849;55.992;37.252;2022-09-12T20:02:06;11.45;;;6.88;;
46110;SDS011;31849;55.992;37.252;2022-09-12T20:07:10;12.48;;;6.60;;
46110;SDS011;31849;55.992;37.252;2022-09-12T20:12:13;16.50;;;6.53;;
46110;SDS011;31849;55.992;37.252;2022-09-12T20:17:19;10.80;;;6.80;;
46110;SDS011;31849;55.992;37.252;2022-09-12T20:22:23;9.27;;;6.15;;
46110;SDS011;31849;55.992;37.252;2022-09-12T20:27:26;8.45;;;5.68;;
46110;SDS011;31849;55.992;37.252;2022-09-12T20:32:32;8.43;;;5.30;;
46110;SDS011;31849;55.992;37.252;2022-09-12T20:42:41;7.18;;;5.30;;
46110;SDS011;31849;55.992;37.252;2022-09-12T20:47:46;9.55;;;5.50;;
46110;SDS011;31849;55.992;37.252;2022-09-12T20:52:50;8.98;;;5.53;;
46110;SDS011;31849;55.992;37.252;2022-09-12T20:57:53;8.07;;;5.40;;
46110;SDS011;31849;55.992;37.252;2022-09-12T21:02:59;8.32;;;5.60;;
46110;SDS011;31849;55.992;37.252;2022-09-12T21:08:02;7.22;;;5.72;;
46110;SDS011;31849;55.992;37.252;2022-09-12T21:13:07;8.68;;;6.18;;
46110;SDS011;31849;55.992;37.252;2022-09-12T21:18:13;16.23;;;6.90;;
46110;SDS011;31849;55.992;37.252;2022-09-12T21:23:17;8.65;;;6.22;;
46110;SDS011;31849;55.992;37.252;2022-09-12T21:28:20;10.35;;;6.72;;
46110;SDS011;31849;55.992;37.252;2022-09-12T21:38:30;9.57;;;6.30;;
46110;SDS011;31849;55.992;37.252;2022-09-12T21:43:34;11.07;;;5.95;;
46110;SDS011;31849;55.992;37.252;2022-09-12T21:48:41;7.53;;;5.60;;
46110;SDS011;31849;55.992;37.252;2022-09-12T21:53:45;7.57;;;5.57;;
46110;SDS011;31849;55.992;37.252;2022-09-12T21:58:48;7.97;;;5.68;;
46110;SDS011;31849;55.992;37.252;2022-09-12T22:03:54;8.43;;;5.60;;
46110;SDS011;31849;55.992;37.252;2022-09-12T22:08:57;8.65;;;5.22;;
46110;SDS011;31849;55.992;37.252;2022-09-12T22:14:01;10.23;;;5.43;;
46110;SDS011;31849;55.992;37.252;2022-09-12T22:19:06;10.70;;;5.65;;
46110;SDS011;31849;55.992;37.252;2022-09-12T22:24:10;6.72;;;5.22;;
46110;SDS011;31849;55.992;37.252;2022-09-12T22:29:29;6.80;;;4.90;;
46110;SDS011;31849;55.992;37.252;2022-09-12T22:34:35;9.10;;;5.53;;
46110;SDS011;31849;55.992;37.252;2022-09-12T22:39:38;9.23;;;5.47;;
46110;SDS011;31849;55.992;37.252;2022-09-12T22:44:42;8.82;;;5.25;;
46110;SDS011;31849;55.992;37.252;2022-09-12T22:49:48;8.25;;;4.68;;
46110;SDS011;31849;55.992;37.252;2022-09-12T22:54:51;9.30;;;5.05;;
46110;SDS011;31849;55.992;37.252;2022-09-12T22:59:55;6.57;;;4.90;;
46110;SDS011;31849;55.992;37.252;2022-09-12T23:05:00;8.53;;;5.10;;
46110;SDS011;31849;55.992;37.252;2022-09-12T23:10:04;6.82;;;4.55;;
46110;SDS011;31849;55.992;37.252;2022-09-12T23:15:09;8.57;;;5.10;;
46110;SDS011;31849;55.992;37.252;2022-09-12T23:20:14;7.70;;;5.27;;
46110;SDS011;31849;55.992;37.252;2022-09-12T23:25:18;7.70;;;4.65;;
46110;SDS011;31849;55.992;37.252;2022-09-12T23:30:24;7.07;;;5.50;;
46110;SDS011;31849;55.992;37.252;2022-09-12T23:35:29;8.00;;;5.20;;
46110;SDS011;31849;55.992;37.252;2022-09-12T23:40:33;8.60;;;5.10;;
46110;SDS011;31849;55.992;37.252;2022-09-12T23:45:37;8.73;;;5.17;;
46110;SDS011;31849;55.992;37.252;2022-09-12T23:50:44;7.03;;;5.35;;
46110;SDS011;31849;55.992;37.252;2022-09-12T23:55:49;8.68;;;5.15;;
